sensor_id;sensor_type;location;lat;lon;timestamp;P1;durP1;ratioP1;P2;durP2;ratioP2
41253;SDS011;26987;59.928;30.306;2022-09-12T00:01:49;21.88;;;9.27;;
41253;SDS011;26987;59.928;30.306;2022-09-12T00:04:17;20.48;;;9.95;;
41253;SDS011;26987;59.928;30.306;2022-09-12T00:06:45;21.42;;;9.35;;
41253;SDS011;26987;59.928;30.306;2022-09-12T00:09:14;16.50;;;8.77;;
41253;SDS011;26987;59.928;30.306;2022-09-12T00:11:43;18.48;;;8.35;;
41253;SDS011;26987;59.928;30.306;2022-09-12T00:14:13;19.13;;;8.75;;
41253;SDS011;26987;59.928;30.306;2022-09-12T00:16:42;20.35;;;9.32;;
41253;SDS011;26987;59.928;30.306;2022-09-12T00:19:11;23.83;;;9.95;;
41253;SDS011;26987;59.928;30.306;2022-09-12T00:21:39;17.83;;;9.88;;
41253;SDS011;26987;59.928;30.306;2022-09-12T00:24:07;22.75;;;9.82;;
41253;SDS011;26987;59.928;30.306;2022-09-12T00:26:38;23.65;;;10.60;;
41253;SDS011;26987;59.928;30.306;2022-09-12T00:29:06;19.95;;;11.05;;
41253;SDS011;26987;59.928;30.306;2022-09-12T00:31:33;23.20;;;9.95;;
41253;SDS011;26987;59.928;30.306;2022-09-12T00:34:01;25.75;;;10.77;;
41253;SDS011;26987;59.928;30.306;2022-09-12T00:36:29;20.30;;;9.98;;
41253;SDS011;26987;59.928;30.306;2022-09-12T00:38:57;22.92;;;10.82;;
41253;SDS011;26987;59.928;30.306;2022-09-12T00:41:26;22.75;;;10.07;;
41253;SDS011;26987;59.928;30.306;2022-09-12T00:43:58;25.80;;;11.35;;
41253;SDS011;26987;59.928;30.306;2022-09-12T00:46:29;27.58;;;10.35;;
41253;SDS011;26987;59.928;30.306;2022-09-12T00:49:03;24.90;;;10.27;;
41253;SDS011;26987;59.928;30.306;2022-09-12T00:51:34;28.50;;;9.93;;
41253;SDS011;26987;59.928;30.306;2022-09-12T00:54:04;30.35;;;10.98;;
41253;SDS011;26987;59.928;30.306;2022-09-12T00:56:36;25.95;;;10.45;;
41253;SDS011;26987;59.928;30.306;2022-09-12T00:59:10;28.02;;;10.18;;
41253;SDS011;26987;59.928;30.306;2022-09-12T01:01:41;22.05;;;10.27;;
41253;SDS011;26987;59.928;30.306;2022-09-12T01:04:10;20.83;;;9.82;;
41253;SDS011;26987;59.928;30.306;2022-09-12T01:06:40;22.58;;;10.80;;
41253;SDS011;26987;59.928;30.306;2022-09-12T01:09:11;21.67;;;10.65;;
41253;SDS011;26987;59.928;30.306;2022-09-12T01:11:41;17.27;;;10.02;;
41253;SDS011;26987;59.928;30.306;2022-09-12T01:14:16;19.75;;;10.18;;
41253;SDS011;26987;59.928;30.306;2022-09-12T01:16:44;22.92;;;10.13;;
41253;SDS011;26987;59.928;30.306;2022-09-12T01:19:18;23.88;;;11.00;;
41253;SDS011;26987;59.928;30.306;2022-09-12T01:22:06;24.92;;;9.43;;
41253;SDS011;26987;59.928;30.306;2022-09-12T01:24:54;14.20;;;6.87;;
41253;SDS011;26987;59.928;30.306;2022-09-12T01:27:36;22.95;;;9.20;;
41253;SDS011;26987;59.928;30.306;2022-09-12T01:33:18;24.58;;;9.95;;
41253;SDS011;26987;59.928;30.306;2022-09-12T01:36:23;24.92;;;9.88;;
41253;SDS011;26987;59.928;30.306;2022-09-12T01:39:01;23.88;;;10.15;;
41253;SDS011;26987;59.928;30.306;2022-09-12T01:41:36;23.50;;;10.02;;
41253;SDS011;26987;59.928;30.306;2022-09-12T01:44:12;19.35;;;10.40;;
41253;SDS011;26987;59.928;30.306;2022-09-12T01:46:52;22.27;;;10.13;;
41253;SDS011;26987;59.928;30.306;2022-09-12T01:49:23;19.80;;;9.90;;
41253;SDS011;26987;59.928;30.306;2022-09-12T01:51:57;23.15;;;10.45;;
41253;SDS011;26987;59.928;30.306;2022-09-12T01:54:30;26.73;;;9.75;;
41253;SDS011;26987;59.928;30.306;2022-09-12T01:57:03;19.42;;;9.43;;
41253;SDS011;26987;59.928;30.306;2022-09-12T01:59:38;17.90;;;8.88;;
41253;SDS011;26987;59.928;30.306;2022-09-12T02:02:11;19.15;;;8.77;;
41253;SDS011;26987;59.928;30.306;2022-09-12T02:04:43;18.98;;;9.18;;
41253;SDS011;26987;59.928;30.306;2022-09-12T02:07:19;19.90;;;8.90;;
41253;SDS011;26987;59.928;30.306;2022-09-12T02:09:51;19.05;;;8.30;;
41253;SDS011;26987;59.928;30.306;2022-09-12T02:12:23;15.55;;;7.90;;
41253;SDS011;26987;59.928;30.306;2022-09-12T02:14:54;18.40;;;8.05;;
41253;SDS011;26987;59.928;30.306;2022-09-12T02:17:29;19.83;;;8.40;;
41253;SDS011;26987;59.928;30.306;2022-09-12T02:20:04;23.75;;;7.88;;
41253;SDS011;26987;59.928;30.306;2022-09-12T02:22:36;19.33;;;7.78;;
41253;SDS011;26987;59.928;30.306;2022-09-12T02:25:06;19.83;;;7.75;;
41253;SDS011;26987;59.928;30.306;2022-09-12T02:27:37;18.15;;;8.82;;
41253;SDS011;26987;59.928;30.306;2022-09-12T02:30:09;15.85;;;7.50;;
41253;SDS011;26987;59.928;30.306;2022-09-12T02:32:42;19.48;;;7.72;;
41253;SDS011;26987;59.928;30.306;2022-09-12T02:35:20;16.13;;;7.93;;
41253;SDS011;26987;59.928;30.306;2022-09-12T02:37:58;17.60;;;7.75;;
41253;SDS011;26987;59.928;30.306;2022-09-12T02:40:31;19.95;;;7.60;;
41253;SDS011;26987;59.928;30.306;2022-09-12T02:43:01;15.18;;;7.38;;
41253;SDS011;26987;59.928;30.306;2022-09-12T02:45:30;14.25;;;7.30;;
41253;SDS011;26987;59.928;30.306;2022-09-12T02:48:02;15.00;;;6.68;;
41253;SDS011;26987;59.928;30.306;2022-09-12T02:50:34;13.02;;;6.07;;
41253;SDS011;26987;59.928;30.306;2022-09-12T02:53:03;15.30;;;6.43;;
41253;SDS011;26987;59.928;30.306;2022-09-12T02:55:33;15.70;;;7.10;;
41253;SDS011;26987;59.928;30.306;2022-09-12T02:58:03;18.50;;;6.32;;
41253;SDS011;26987;59.928;30.306;2022-09-12T03:00:34;16.38;;;7.03;;
41253;SDS011;26987;59.928;30.306;2022-09-12T03:03:15;15.65;;;6.85;;
41253;SDS011;26987;59.928;30.306;2022-09-12T03:05:54;17.97;;;6.60;;
41253;SDS011;26987;59.928;30.306;2022-09-12T03:08:29;16.40;;;7.78;;
41253;SDS011;26987;59.928;30.306;2022-09-12T03:11:18;14.23;;;7.43;;
41253;SDS011;26987;59.928;30.306;2022-09-12T03:14:00;19.05;;;7.18;;
41253;SDS011;26987;59.928;30.306;2022-09-12T03:16:40;15.40;;;6.47;;
41253;SDS011;26987;59.928;30.306;2022-09-12T03:19:21;16.38;;;7.05;;
41253;SDS011;26987;59.928;30.306;2022-09-12T03:21:57;14.52;;;7.68;;
41253;SDS011;26987;59.928;30.306;2022-09-12T03:24:36;17.70;;;8.40;;
41253;SDS011;26987;59.928;30.306;2022-09-12T03:27:14;18.90;;;8.90;;
41253;SDS011;26987;59.928;30.306;2022-09-12T03:29:46;26.27;;;8.98;;
41253;SDS011;26987;59.928;30.306;2022-09-12T03:32:16;22.23;;;9.43;;
41253;SDS011;26987;59.928;30.306;2022-09-12T03:34:45;15.00;;;8.40;;
41253;SDS011;26987;59.928;30.306;2022-09-12T03:37:13;15.57;;;8.07;;
41253;SDS011;26987;59.928;30.306;2022-09-12T03:39:41;17.52;;;7.72;;
41253;SDS011;26987;59.928;30.306;2022-09-12T03:42:09;14.43;;;6.03;;
41253;SDS011;26987;59.928;30.306;2022-09-12T03:44:37;14.13;;;7.00;;
41253;SDS011;26987;59.928;30.306;2022-09-12T03:47:05;12.43;;;6.47;;
41253;SDS011;26987;59.928;30.306;2022-09-12T03:49:33;11.85;;;6.75;;
41253;SDS011;26987;59.928;30.306;2022-09-12T03:52:03;11.82;;;6.10;;
41253;SDS011;26987;59.928;30.306;2022-09-12T03:54:31;11.63;;;5.75;;
41253;SDS011;26987;59.928;30.306;2022-09-12T03:56:59;12.85;;;5.53;;
41253;SDS011;26987;59.928;30.306;2022-09-12T03:59:27;25.15;;;6.95;;
41253;SDS011;26987;59.928;30.306;2022-09-12T04:01:54;19.58;;;6.03;;
41253;SDS011;26987;59.928;30.306;2022-09-12T04:04:22;12.15;;;5.68;;
41253;SDS011;26987;59.928;30.306;2022-09-12T04:06:50;12.80;;;5.60;;
41253;SDS011;26987;59.928;30.306;2022-09-12T04:09:20;14.70;;;5.32;;
41253;SDS011;26987;59.928;30.306;2022-09-12T04:11:47;12.25;;;5.93;;
41253;SDS011;26987;59.928;30.306;2022-09-12T04:14:15;15.68;;;7.20;;
41253;SDS011;26987;59.928;30.306;2022-09-12T04:16:43;16.10;;;6.82;;
41253;SDS011;26987;59.928;30.306;2022-09-12T04:19:11;14.98;;;7.97;;
41253;SDS011;26987;59.928;30.306;2022-09-12T04:21:39;16.63;;;7.97;;
41253;SDS011;26987;59.928;30.306;2022-09-12T04:24:07;18.10;;;8.40;;
41253;SDS011;26987;59.928;30.306;2022-09-12T04:26:36;21.02;;;9.02;;
41253;SDS011;26987;59.928;30.306;2022-09-12T04:29:04;21.45;;;8.50;;
41253;SDS011;26987;59.928;30.306;2022-09-12T04:31:32;20.60;;;10.02;;
41253;SDS011;26987;59.928;30.306;2022-09-12T04:34:00;13.75;;;8.88;;
41253;SDS011;26987;59.928;30.306;2022-09-12T04:36:28;17.05;;;9.18;;
41253;SDS011;26987;59.928;30.306;2022-09-12T04:38:56;20.02;;;9.13;;
41253;SDS011;26987;59.928;30.306;2022-09-12T04:41:25;15.00;;;8.55;;
41253;SDS011;26987;59.928;30.306;2022-09-12T04:43:57;17.73;;;8.43;;
41253;SDS011;26987;59.928;30.306;2022-09-12T04:46:27;15.98;;;8.95;;
41253;SDS011;26987;59.928;30.306;2022-09-12T04:48:56;15.50;;;8.07;;
41253;SDS011;26987;59.928;30.306;2022-09-12T04:51:24;14.25;;;7.72;;
41253;SDS011;26987;59.928;30.306;2022-09-12T04:53:54;15.93;;;8.27;;
41253;SDS011;26987;59.928;30.306;2022-09-12T04:56:23;13.32;;;8.18;;
41253;SDS011;26987;59.928;30.306;2022-09-12T04:58:52;13.88;;;7.15;;
41253;SDS011;26987;59.928;30.306;2022-09-12T05:01:21;16.27;;;7.72;;
41253;SDS011;26987;59.928;30.306;2022-09-12T05:03:50;12.63;;;7.40;;
41253;SDS011;26987;59.928;30.306;2022-09-12T05:06:19;17.92;;;8.35;;
41253;SDS011;26987;59.928;30.306;2022-09-12T05:08:49;12.27;;;7.57;;
41253;SDS011;26987;59.928;30.306;2022-09-12T05:11:19;11.43;;;7.05;;
41253;SDS011;26987;59.928;30.306;2022-09-12T05:13:48;11.95;;;6.75;;
41253;SDS011;26987;59.928;30.306;2022-09-12T05:16:16;14.27;;;7.95;;
41253;SDS011;26987;59.928;30.306;2022-09-12T05:18:47;12.75;;;7.38;;
41253;SDS011;26987;59.928;30.306;2022-09-12T05:21:16;11.10;;;6.78;;
41253;SDS011;26987;59.928;30.306;2022-09-12T05:23:46;10.85;;;6.53;;
41253;SDS011;26987;59.928;30.306;2022-09-12T05:26:16;10.85;;;6.68;;
41253;SDS011;26987;59.928;30.306;2022-09-12T05:28:46;12.95;;;6.68;;
41253;SDS011;26987;59.928;30.306;2022-09-12T05:31:15;12.90;;;6.53;;
41253;SDS011;26987;59.928;30.306;2022-09-12T05:33:44;11.57;;;5.88;;
41253;SDS011;26987;59.928;30.306;2022-09-12T05:36:15;14.65;;;6.97;;
41253;SDS011;26987;59.928;30.306;2022-09-12T05:38:44;12.25;;;6.93;;
41253;SDS011;26987;59.928;30.306;2022-09-12T05:41:13;13.52;;;7.20;;
41253;SDS011;26987;59.928;30.306;2022-09-12T05:43:42;8.82;;;6.22;;
41253;SDS011;26987;59.928;30.306;2022-09-12T05:46:11;11.65;;;6.57;;
41253;SDS011;26987;59.928;30.306;2022-09-12T05:48:42;13.93;;;6.93;;
41253;SDS011;26987;59.928;30.306;2022-09-12T05:51:13;15.07;;;6.50;;
41253;SDS011;26987;59.928;30.306;2022-09-12T05:53:42;22.42;;;6.47;;
41253;SDS011;26987;59.928;30.306;2022-09-12T05:56:11;9.52;;;5.65;;
41253;SDS011;26987;59.928;30.306;2022-09-12T05:58:41;13.63;;;6.57;;
41253;SDS011;26987;59.928;30.306;2022-09-12T06:01:11;10.13;;;5.70;;
41253;SDS011;26987;59.928;30.306;2022-09-12T06:03:40;17.80;;;6.30;;
41253;SDS011;26987;59.928;30.306;2022-09-12T06:06:10;10.07;;;5.10;;
41253;SDS011;26987;59.928;30.306;2022-09-12T06:08:40;12.90;;;4.60;;
41253;SDS011;26987;59.928;30.306;2022-09-12T06:11:09;16.27;;;5.97;;
41253;SDS011;26987;59.928;30.306;2022-09-12T06:13:39;13.68;;;5.18;;
41253;SDS011;26987;59.928;30.306;2022-09-12T06:16:09;12.32;;;5.20;;
41253;SDS011;26987;59.928;30.306;2022-09-12T06:18:38;12.40;;;5.13;;
41253;SDS011;26987;59.928;30.306;2022-09-12T06:21:08;8.65;;;4.65;;
41253;SDS011;26987;59.928;30.306;2022-09-12T06:23:39;10.18;;;4.60;;
41253;SDS011;26987;59.928;30.306;2022-09-12T06:26:08;20.40;;;4.47;;
41253;SDS011;26987;59.928;30.306;2022-09-12T06:28:37;8.80;;;3.90;;
41253;SDS011;26987;59.928;30.306;2022-09-12T06:31:07;14.43;;;4.38;;
41253;SDS011;26987;59.928;30.306;2022-09-12T06:33:37;14.80;;;3.97;;
41253;SDS011;26987;59.928;30.306;2022-09-12T06:36:07;10.82;;;3.45;;
41253;SDS011;26987;59.928;30.306;2022-09-12T06:38:39;7.75;;;3.47;;
41253;SDS011;26987;59.928;30.306;2022-09-12T06:41:07;12.05;;;3.58;;
41253;SDS011;26987;59.928;30.306;2022-09-12T06:43:37;8.43;;;3.15;;
41253;SDS011;26987;59.928;30.306;2022-09-12T06:46:05;7.47;;;3.10;;
41253;SDS011;26987;59.928;30.306;2022-09-12T06:48:34;10.30;;;2.70;;
41253;SDS011;26987;59.928;30.306;2022-09-12T06:51:03;10.52;;;2.10;;
41253;SDS011;26987;59.928;30.306;2022-09-12T06:53:32;5.05;;;1.92;;
41253;SDS011;26987;59.928;30.306;2022-09-12T06:56:03;11.35;;;2.72;;
41253;SDS011;26987;59.928;30.306;2022-09-12T06:58:33;4.90;;;1.92;;
41253;SDS011;26987;59.928;30.306;2022-09-12T07:01:02;8.23;;;2.20;;
41253;SDS011;26987;59.928;30.306;2022-09-12T07:03:31;11.18;;;2.38;;
41253;SDS011;26987;59.928;30.306;2022-09-12T07:06:01;4.65;;;1.80;;
41253;SDS011;26987;59.928;30.306;2022-09-12T07:08:31;5.57;;;1.92;;
41253;SDS011;26987;59.928;30.306;2022-09-12T07:11:03;9.85;;;2.22;;
41253;SDS011;26987;59.928;30.306;2022-09-12T07:13:38;10.32;;;1.90;;
41253;SDS011;26987;59.928;30.306;2022-09-12T07:16:06;8.45;;;2.40;;
41253;SDS011;26987;59.928;30.306;2022-09-12T07:18:35;5.47;;;1.70;;
41253;SDS011;26987;59.928;30.306;2022-09-12T07:21:04;6.15;;;1.80;;
41253;SDS011;26987;59.928;30.306;2022-09-12T07:23:34;5.28;;;1.40;;
41253;SDS011;26987;59.928;30.306;2022-09-12T07:26:01;5.65;;;1.40;;
41253;SDS011;26987;59.928;30.306;2022-09-12T07:28:31;3.28;;;1.60;;
41253;SDS011;26987;59.928;30.306;2022-09-12T07:31:03;7.10;;;1.85;;
41253;SDS011;26987;59.928;30.306;2022-09-12T07:33:32;9.68;;;1.90;;
41253;SDS011;26987;59.928;30.306;2022-09-12T07:36:01;5.03;;;1.90;;
41253;SDS011;26987;59.928;30.306;2022-09-12T07:38:29;6.43;;;2.28;;
41253;SDS011;26987;59.928;30.306;2022-09-12T07:40:57;12.02;;;2.63;;
41253;SDS011;26987;59.928;30.306;2022-09-12T07:43:26;8.60;;;1.83;;
41253;SDS011;26987;59.928;30.306;2022-09-12T07:45:56;7.30;;;1.60;;
41253;SDS011;26987;59.928;30.306;2022-09-12T07:48:24;4.95;;;1.73;;
41253;SDS011;26987;59.928;30.306;2022-09-12T07:50:58;4.55;;;1.63;;
41253;SDS011;26987;59.928;30.306;2022-09-12T07:53:29;3.38;;;1.27;;
41253;SDS011;26987;59.928;30.306;2022-09-12T07:55:58;2.22;;;1.50;;
41253;SDS011;26987;59.928;30.306;2022-09-12T07:58:28;5.15;;;1.38;;
41253;SDS011;26987;59.928;30.306;2022-09-12T08:01:02;4.22;;;1.30;;
41253;SDS011;26987;59.928;30.306;2022-09-12T08:03:30;3.78;;;1.35;;
41253;SDS011;26987;59.928;30.306;2022-09-12T08:06:01;2.50;;;1.20;;
41253;SDS011;26987;59.928;30.306;2022-09-12T08:08:30;10.85;;;1.75;;
41253;SDS011;26987;59.928;30.306;2022-09-12T08:10:59;5.03;;;1.40;;
41253;SDS011;26987;59.928;30.306;2022-09-12T08:13:27;6.63;;;2.30;;
41253;SDS011;26987;59.928;30.306;2022-09-12T08:15:57;8.57;;;2.03;;
41253;SDS011;26987;59.928;30.306;2022-09-12T08:18:27;6.55;;;2.20;;
41253;SDS011;26987;59.928;30.306;2022-09-12T08:20:57;4.75;;;1.70;;
41253;SDS011;26987;59.928;30.306;2022-09-12T08:23:26;3.65;;;1.90;;
41253;SDS011;26987;59.928;30.306;2022-09-12T08:25:54;8.00;;;1.42;;
41253;SDS011;26987;59.928;30.306;2022-09-12T08:28:23;14.05;;;2.58;;
41253;SDS011;26987;59.928;30.306;2022-09-12T08:30:51;11.75;;;2.08;;
41253;SDS011;26987;59.928;30.306;2022-09-12T08:33:19;3.33;;;1.60;;
41253;SDS011;26987;59.928;30.306;2022-09-12T08:35:49;4.82;;;2.10;;
41253;SDS011;26987;59.928;30.306;2022-09-12T08:38:16;3.40;;;1.73;;
41253;SDS011;26987;59.928;30.306;2022-09-12T08:40:47;2.80;;;1.40;;
41253;SDS011;26987;59.928;30.306;2022-09-12T08:43:24;7.75;;;1.58;;
41253;SDS011;26987;59.928;30.306;2022-09-12T08:46:03;3.88;;;1.63;;
41253;SDS011;26987;59.928;30.306;2022-09-12T08:48:35;3.75;;;1.33;;
41253;SDS011;26987;59.928;30.306;2022-09-12T08:51:06;16.40;;;2.45;;
41253;SDS011;26987;59.928;30.306;2022-09-12T08:53:39;10.50;;;1.98;;
41253;SDS011;26987;59.928;30.306;2022-09-12T08:56:08;11.15;;;2.17;;
41253;SDS011;26987;59.928;30.306;2022-09-12T08:58:39;6.45;;;1.55;;
41253;SDS011;26987;59.928;30.306;2022-09-12T09:01:09;5.80;;;1.83;;
41253;SDS011;26987;59.928;30.306;2022-09-12T09:04:03;6.25;;;1.77;;
41253;SDS011;26987;59.928;30.306;2022-09-12T09:06:57;4.03;;;1.70;;
41253;SDS011;26987;59.928;30.306;2022-09-12T09:09:36;7.32;;;2.30;;
41253;SDS011;26987;59.928;30.306;2022-09-12T09:12:15;7.68;;;2.00;;
41253;SDS011;26987;59.928;30.306;2022-09-12T09:14:52;5.95;;;2.20;;
41253;SDS011;26987;59.928;30.306;2022-09-12T09:17:32;4.03;;;1.60;;
41253;SDS011;26987;59.928;30.306;2022-09-12T09:20:06;7.00;;;1.25;;
41253;SDS011;26987;59.928;30.306;2022-09-12T09:22:48;5.25;;;1.52;;
41253;SDS011;26987;59.928;30.306;2022-09-12T09:25:20;8.90;;;1.97;;
41253;SDS011;26987;59.928;30.306;2022-09-12T09:27:53;6.03;;;1.40;;
41253;SDS011;26987;59.928;30.306;2022-09-12T09:30:24;6.43;;;1.70;;
41253;SDS011;26987;59.928;30.306;2022-09-12T09:32:54;4.90;;;1.60;;
41253;SDS011;26987;59.928;30.306;2022-09-12T09:35:26;10.80;;;2.05;;
41253;SDS011;26987;59.928;30.306;2022-09-12T09:38:11;10.32;;;2.22;;
41253;SDS011;26987;59.928;30.306;2022-09-12T09:40:51;7.03;;;1.90;;
41253;SDS011;26987;59.928;30.306;2022-09-12T09:43:26;5.97;;;2.47;;
41253;SDS011;26987;59.928;30.306;2022-09-12T09:45:55;7.65;;;2.50;;
41253;SDS011;26987;59.928;30.306;2022-09-12T09:48:26;3.92;;;1.65;;
41253;SDS011;26987;59.928;30.306;2022-09-12T09:50:56;6.07;;;2.45;;
41253;SDS011;26987;59.928;30.306;2022-09-12T09:53:31;4.93;;;2.10;;
41253;SDS011;26987;59.928;30.306;2022-09-12T09:56:05;5.47;;;1.90;;
41253;SDS011;26987;59.928;30.306;2022-09-12T09:58:37;3.50;;;1.80;;
41253;SDS011;26987;59.928;30.306;2022-09-12T10:01:11;12.80;;;2.83;;
41253;SDS011;26987;59.928;30.306;2022-09-12T10:03:46;4.88;;;2.50;;
41253;SDS011;26987;59.928;30.306;2022-09-12T10:06:24;3.70;;;2.20;;
41253;SDS011;26987;59.928;30.306;2022-09-12T10:09:16;3.78;;;1.95;;
41253;SDS011;26987;59.928;30.306;2022-09-12T10:11:46;4.55;;;1.88;;
41253;SDS011;26987;59.928;30.306;2022-09-12T10:14:26;6.95;;;1.98;;
41253;SDS011;26987;59.928;30.306;2022-09-12T10:17:00;8.43;;;2.15;;
41253;SDS011;26987;59.928;30.306;2022-09-12T10:19:32;7.00;;;2.05;;
41253;SDS011;26987;59.928;30.306;2022-09-12T10:22:02;6.38;;;1.85;;
41253;SDS011;26987;59.928;30.306;2022-09-12T10:24:33;6.70;;;1.90;;
41253;SDS011;26987;59.928;30.306;2022-09-12T10:27:06;7.53;;;2.10;;
41253;SDS011;26987;59.928;30.306;2022-09-12T10:29:38;5.40;;;1.58;;
41253;SDS011;26987;59.928;30.306;2022-09-12T10:32:18;2.78;;;1.55;;
41253;SDS011;26987;59.928;30.306;2022-09-12T10:34:52;3.45;;;1.70;;
41253;SDS011;26987;59.928;30.306;2022-09-12T10:37:23;5.82;;;2.13;;
41253;SDS011;26987;59.928;30.306;2022-09-12T10:39:56;3.20;;;1.75;;
41253;SDS011;26987;59.928;30.306;2022-09-12T10:45:17;6.90;;;2.10;;
41253;SDS011;26987;59.928;30.306;2022-09-12T10:47:47;6.35;;;2.50;;
41253;SDS011;26987;59.928;30.306;2022-09-12T10:50:17;3.17;;;2.10;;
41253;SDS011;26987;59.928;30.306;2022-09-12T10:52:46;5.20;;;2.08;;
41253;SDS011;26987;59.928;30.306;2022-09-12T10:55:16;6.00;;;2.10;;
41253;SDS011;26987;59.928;30.306;2022-09-12T10:57:56;8.25;;;1.92;;
41253;SDS011;26987;59.928;30.306;2022-09-12T11:00:33;4.72;;;1.85;;
41253;SDS011;26987;59.928;30.306;2022-09-12T11:03:09;8.85;;;2.10;;
41253;SDS011;26987;59.928;30.306;2022-09-12T11:05:45;7.55;;;1.95;;
41253;SDS011;26987;59.928;30.306;2022-09-12T11:11:15;5.47;;;2.33;;
41253;SDS011;26987;59.928;30.306;2022-09-12T11:14:03;7.40;;;1.88;;
41253;SDS011;26987;59.928;30.306;2022-09-12T11:16:46;5.72;;;2.08;;
41253;SDS011;26987;59.928;30.306;2022-09-12T11:19:34;7.72;;;2.42;;
41253;SDS011;26987;59.928;30.306;2022-09-12T11:22:29;5.43;;;2.25;;
41253;SDS011;26987;59.928;30.306;2022-09-12T11:25:17;6.68;;;2.20;;
41253;SDS011;26987;59.928;30.306;2022-09-12T11:28:01;7.28;;;2.00;;
41253;SDS011;26987;59.928;30.306;2022-09-12T11:30:48;4.20;;;2.03;;
41253;SDS011;26987;59.928;30.306;2022-09-12T11:33:28;3.97;;;2.70;;
41253;SDS011;26987;59.928;30.306;2022-09-12T11:36:08;10.23;;;2.22;;
41253;SDS011;26987;59.928;30.306;2022-09-12T11:38:54;5.80;;;2.30;;
41253;SDS011;26987;59.928;30.306;2022-09-12T11:41:34;7.05;;;1.90;;
41253;SDS011;26987;59.928;30.306;2022-09-12T11:44:09;5.55;;;2.50;;
41253;SDS011;26987;59.928;30.306;2022-09-12T11:46:41;5.07;;;2.03;;
41253;SDS011;26987;59.928;30.306;2022-09-12T11:49:14;3.97;;;1.60;;
41253;SDS011;26987;59.928;30.306;2022-09-12T11:51:48;5.20;;;1.80;;
41253;SDS011;26987;59.928;30.306;2022-09-12T11:54:21;5.35;;;1.50;;
41253;SDS011;26987;59.928;30.306;2022-09-12T11:56:57;5.57;;;2.35;;
41253;SDS011;26987;59.928;30.306;2022-09-12T11:59:38;5.93;;;2.10;;
41253;SDS011;26987;59.928;30.306;2022-09-12T12:02:11;4.65;;;2.20;;
41253;SDS011;26987;59.928;30.306;2022-09-12T12:04:47;7.18;;;1.63;;
41253;SDS011;26987;59.928;30.306;2022-09-12T12:07:29;4.15;;;1.73;;
41253;SDS011;26987;59.928;30.306;2022-09-12T12:10:05;3.10;;;1.67;;
41253;SDS011;26987;59.928;30.306;2022-09-12T12:12:34;8.20;;;1.35;;
41253;SDS011;26987;59.928;30.306;2022-09-12T12:15:04;6.05;;;1.45;;
41253;SDS011;26987;59.928;30.306;2022-09-12T12:17:33;11.90;;;1.83;;
41253;SDS011;26987;59.928;30.306;2022-09-12T12:20:02;5.63;;;1.73;;
41253;SDS011;26987;59.928;30.306;2022-09-12T12:22:31;9.18;;;2.38;;
41253;SDS011;26987;59.928;30.306;2022-09-12T12:25:14;3.63;;;1.60;;
41253;SDS011;26987;59.928;30.306;2022-09-12T12:27:54;6.10;;;1.35;;
41253;SDS011;26987;59.928;30.306;2022-09-12T12:36:30;1.60;;;0.90;;
41253;SDS011;26987;59.928;30.306;2022-09-12T12:45:48;6.55;;;1.45;;
41253;SDS011;26987;59.928;30.306;2022-09-12T12:48:32;4.15;;;1.65;;
41253;SDS011;26987;59.928;30.306;2022-09-12T12:54:29;10.77;;;1.50;;
41253;SDS011;26987;59.928;30.306;2022-09-12T12:57:16;6.38;;;1.50;;
41253;SDS011;26987;59.928;30.306;2022-09-12T13:00:00;5.05;;;1.48;;
41253;SDS011;26987;59.928;30.306;2022-09-12T13:02:33;5.80;;;1.63;;
41253;SDS011;26987;59.928;30.306;2022-09-12T13:05:05;6.05;;;1.50;;
41253;SDS011;26987;59.928;30.306;2022-09-12T13:07:43;5.40;;;1.55;;
41253;SDS011;26987;59.928;30.306;2022-09-12T13:10:18;3.55;;;1.13;;
41253;SDS011;26987;59.928;30.306;2022-09-12T13:12:49;2.85;;;1.42;;
41253;SDS011;26987;59.928;30.306;2022-09-12T13:15:27;4.35;;;1.85;;
41253;SDS011;26987;59.928;30.306;2022-09-12T13:18:12;4.00;;;1.55;;
41253;SDS011;26987;59.928;30.306;2022-09-12T13:20:46;3.65;;;1.70;;
41253;SDS011;26987;59.928;30.306;2022-09-12T13:23:21;5.15;;;1.73;;
41253;SDS011;26987;59.928;30.306;2022-09-12T13:25:54;7.63;;;1.75;;
41253;SDS011;26987;59.928;30.306;2022-09-12T13:28:23;3.65;;;1.52;;
41253;SDS011;26987;59.928;30.306;2022-09-12T13:30:56;2.95;;;1.23;;
41253;SDS011;26987;59.928;30.306;2022-09-12T13:33:30;5.88;;;1.77;;
41253;SDS011;26987;59.928;30.306;2022-09-12T13:39:12;3.40;;;1.20;;
41253;SDS011;26987;59.928;30.306;2022-09-12T13:42:06;6.05;;;1.52;;
41253;SDS011;26987;59.928;30.306;2022-09-12T13:45:00;5.57;;;1.60;;
41253;SDS011;26987;59.928;30.306;2022-09-12T13:47:31;6.00;;;1.80;;
41253;SDS011;26987;59.928;30.306;2022-09-12T13:50:04;7.18;;;1.50;;
41253;SDS011;26987;59.928;30.306;2022-09-12T13:52:35;3.35;;;1.60;;
41253;SDS011;26987;59.928;30.306;2022-09-12T13:55:06;6.30;;;1.65;;
41253;SDS011;26987;59.928;30.306;2022-09-12T13:57:44;9.88;;;1.88;;
41253;SDS011;26987;59.928;30.306;2022-09-12T14:00:21;9.02;;;1.65;;
41253;SDS011;26987;59.928;30.306;2022-09-12T14:02:50;9.10;;;1.95;;
41253;SDS011;26987;59.928;30.306;2022-09-12T14:05:41;4.90;;;1.83;;
41253;SDS011;26987;59.928;30.306;2022-09-12T14:08:10;10.80;;;2.00;;
41253;SDS011;26987;59.928;30.306;2022-09-12T14:10:41;2.60;;;1.30;;
41253;SDS011;26987;59.928;30.306;2022-09-12T14:13:10;8.75;;;2.25;;
41253;SDS011;26987;59.928;30.306;2022-09-12T14:15:43;9.82;;;1.67;;
41253;SDS011;26987;59.928;30.306;2022-09-12T14:18:20;6.57;;;1.70;;
41253;SDS011;26987;59.928;30.306;2022-09-12T14:20:52;2.83;;;1.33;;
41253;SDS011;26987;59.928;30.306;2022-09-12T14:23:24;3.88;;;1.65;;
41253;SDS011;26987;59.928;30.306;2022-09-12T14:25:55;5.60;;;1.50;;
41253;SDS011;26987;59.928;30.306;2022-09-12T14:28:25;5.18;;;1.70;;
41253;SDS011;26987;59.928;30.306;2022-09-12T14:31:02;4.82;;;2.05;;
41253;SDS011;26987;59.928;30.306;2022-09-12T14:33:32;6.50;;;1.90;;
41253;SDS011;26987;59.928;30.306;2022-09-12T14:36:18;11.82;;;1.63;;
41253;SDS011;26987;59.928;30.306;2022-09-12T14:38:49;6.22;;;2.03;;
41253;SDS011;26987;59.928;30.306;2022-09-12T14:41:21;12.82;;;2.33;;
41253;SDS011;26987;59.928;30.306;2022-09-12T14:43:53;8.15;;;2.15;;
41253;SDS011;26987;59.928;30.306;2022-09-12T14:46:26;9.32;;;2.90;;
41253;SDS011;26987;59.928;30.306;2022-09-12T14:48:58;4.85;;;2.33;;
41253;SDS011;26987;59.928;30.306;2022-09-12T14:51:33;4.30;;;1.80;;
41253;SDS011;26987;59.928;30.306;2022-09-12T14:54:03;7.43;;;2.88;;
41253;SDS011;26987;59.928;30.306;2022-09-12T14:56:38;4.75;;;1.90;;
41253;SDS011;26987;59.928;30.306;2022-09-12T14:59:19;11.27;;;2.15;;
41253;SDS011;26987;59.928;30.306;2022-09-12T15:02:13;5.63;;;2.47;;
41253;SDS011;26987;59.928;30.306;2022-09-12T15:04:48;11.23;;;2.80;;
41253;SDS011;26987;59.928;30.306;2022-09-12T15:07:21;12.48;;;2.67;;
41253;SDS011;26987;59.928;30.306;2022-09-12T15:09:56;3.90;;;1.95;;
41253;SDS011;26987;59.928;30.306;2022-09-12T15:12:25;14.15;;;2.58;;
41253;SDS011;26987;59.928;30.306;2022-09-12T15:14:54;8.10;;;2.30;;
41253;SDS011;26987;59.928;30.306;2022-09-12T15:17:28;5.00;;;1.80;;
41253;SDS011;26987;59.928;30.306;2022-09-12T15:19:56;8.05;;;2.28;;
41253;SDS011;26987;59.928;30.306;2022-09-12T15:22:25;4.50;;;2.00;;
41253;SDS011;26987;59.928;30.306;2022-09-12T15:24:53;4.03;;;1.92;;
41253;SDS011;26987;59.928;30.306;2022-09-12T15:27:22;6.55;;;2.03;;